createdAt,value
2019-04-14T00:01:10.819Z,98440.67
2019-04-14T00:04:00.630Z,98436.87
2019-04-14T00:06:35.130Z,98431.80
2019-04-14T00:09:11.768Z,98431.30
2019-04-14T00:11:45.902Z,98432.50
2019-04-14T00:14:18.552Z,98431.79
2019-04-14T00:16:51.023Z,98424.76
2019-04-14T00:19:23.842Z,98428.78
2019-04-14T00:21:56.638Z,98426.31
2019-04-14T00:24:29.105Z,98423.95
2019-04-14T00:27:01.939Z,98415.91
2019-04-14T00:29:35.096Z,98418.67
2019-04-14T00:32:07.420Z,98419.09
2019-04-14T00:34:48.541Z,98422.19
2019-04-14T00:37:35.788Z,98412.16
2019-04-14T00:40:10.788Z,98417.25
2019-04-14T00:42:52.424Z,98415.05
2019-04-14T00:45:52.712Z,98412.19
2019-04-14T00:48:24.277Z,98408.26
2019-04-14T00:50:56.635Z,98408.26
2019-04-14T00:53:29.537Z,98401.97
2019-04-14T00:56:01.978Z,98410.53
2019-04-14T00:58:34.357Z,98411.56
2019-04-14T01:01:07.020Z,98415.09
2019-04-14T01:03:39.460Z,98404.02
2019-04-14T01:06:12.224Z,98405.79
2019-04-14T01:08:44.601Z,98409.20
2019-04-14T01:11:18.597Z,98411.77
2019-04-14T01:13:50.850Z,98409.72
2019-04-14T01:16:24.886Z,98411.17
2019-04-14T01:18:55.963Z,98411.78
2019-04-14T01:21:28.483Z,98413.13
2019-04-14T01:24:01.055Z,98413.83
2019-04-14T01:26:33.809Z,98412.39
2019-04-14T01:29:06.385Z,98411.66
2019-04-14T01:31:38.256Z,98419.53
2019-04-14T01:34:10.781Z,98418.28
2019-04-14T01:36:43.203Z,98413.84
2019-04-14T01:39:16.082Z,98422.41
2019-04-14T01:41:48.204Z,98410.42
2019-04-14T01:44:20.066Z,98413.84
2019-04-14T01:46:52.068Z,98417.14
2019-04-14T01:49:26.807Z,98414.55
2019-04-14T01:52:08.192Z,98416.83
2019-04-14T01:55:11.243Z,98417.14
2019-04-14T01:58:12.230Z,98414.77
2019-04-14T02:01:04.198Z,98417.97
2019-04-14T02:03:36.620Z,98419.92
2019-04-14T02:06:09.277Z,98417.23
2019-04-14T02:08:41.538Z,98417.66
2019-04-14T02:11:13.716Z,98411.55
2019-04-14T02:13:46.599Z,98415.58
2019-04-14T02:16:26.927Z,98418.97
2019-04-14T02:18:54.058Z,98411.73
2019-04-14T02:21:26.273Z,98421.37
2019-04-14T02:23:58.624Z,98412.57
2019-04-14T02:26:30.929Z,98409.08
2019-04-14T02:29:03.625Z,98414.33
2019-04-14T02:32:04.249Z,98412.98
2019-04-14T02:34:45.479Z,98414.55
2019-04-14T02:37:10.606Z,98413.72
2019-04-14T02:40:04.060Z,98417.34
2019-04-14T02:44:55.873Z,98417.66
2019-04-14T02:47:45.089Z,98410.42
2019-04-14T02:50:05.416Z,98409.81
2019-04-14T02:52:47.209Z,98406.40
2019-04-14T02:55:05.237Z,98414.33
2019-04-14T02:57:41.700Z,98413.72
2019-04-14T03:00:27.398Z,98411.64
2019-04-14T03:05:16.115Z,98417.02
2019-04-14T03:13:05.494Z,98417.14
2019-04-14T03:15:43.542Z,98411.45
2019-04-14T03:18:44.632Z,98414.33
2019-04-14T03:21:34.819Z,98418.36
2019-04-14T03:24:10.938Z,98420.95
2019-04-14T03:27:26.568Z,98417.43
2019-04-14T03:29:59.829Z,98419.09
2019-04-14T03:35:23.256Z,98421.27
2019-04-14T03:37:45.207Z,98421.45
2019-04-14T03:40:10.013Z,98423.85
2019-04-14T03:42:43.895Z,98418.38
2019-04-14T03:45:28.301Z,98428.72
2019-04-14T03:48:15.024Z,98430.37
2019-04-14T03:50:24.495Z,98431.91
2019-04-14T03:53:09.577Z,98427.78
2019-04-14T03:55:20.470Z,98431.91
2019-04-14T03:57:41.179Z,98432.55
2019-04-14T04:00:13.875Z,98433.66
2019-04-14T04:02:46.680Z,98436.48
2019-04-14T04:05:19.487Z,98434.30
2019-04-14T04:07:51.792Z,98437.82
2019-04-14T04:10:24.639Z,98437.28
2019-04-14T04:12:57.631Z,98436.77
2019-04-14T04:15:30.339Z,98435.74
2019-04-14T04:18:09.149Z,98437.50
2019-04-14T04:21:09.544Z,98433.38
2019-04-14T04:23:48.766Z,98433.88
2019-04-14T04:26:42.966Z,98432.31
2019-04-14T04:29:27.194Z,98430.46
2019-04-14T04:32:27.557Z,98434.72
2019-04-14T04:35:34.619Z,98438.84
2019-04-14T04:38:44.260Z,98439.97
2019-04-14T04:41:16.867Z,98444.41
2019-04-14T04:43:49.427Z,98452.28
2019-04-14T04:46:22.033Z,98445.75
2019-04-14T04:49:04.496Z,98449.98
2019-04-14T04:51:27.377Z,98449.80
2019-04-14T04:54:01.722Z,98449.80
2019-04-14T04:56:34.076Z,98450.62
2019-04-14T04:59:07.550Z,98458.68
2019-04-14T05:01:39.349Z,98453.41
2019-04-14T05:04:11.874Z,98458.56
2019-04-14T05:07:09.897Z,98468.29
2019-04-14T05:10:00.163Z,98473.03
2019-04-14T05:12:56.757Z,98478.09
2019-04-14T05:15:48.956Z,98471.28
2019-04-14T05:18:25.221Z,98472.72
2019-04-14T05:20:57.582Z,98480.36
2019-04-14T05:23:31.999Z,98480.05
2019-04-14T05:26:06.958Z,98476.02
2019-04-14T05:28:39.645Z,98482.52
2019-04-14T05:31:12.167Z,98476.63
2019-04-14T05:33:44.880Z,98483.66
2019-04-14T05:36:17.113Z,98487.25
2019-04-14T05:38:49.565Z,98483.02
2019-04-14T05:41:22.340Z,98488.27
2019-04-14T05:43:58.395Z,98480.71
2019-04-14T05:46:27.930Z,98487.75
2019-04-14T05:48:59.966Z,98485.34
2019-04-14T05:51:32.532Z,98487.73
2019-04-14T05:54:05.560Z,98483.24
2019-04-14T05:56:39.649Z,98487.38
2019-04-14T05:59:11.803Z,98486.69
2019-04-14T06:01:44.306Z,98484.09
2019-04-14T06:04:16.110Z,98498.32
2019-04-14T06:06:47.964Z,98490.35
2019-04-14T06:09:20.612Z,98497.92
2019-04-14T06:11:52.245Z,98497.31
2019-04-14T06:14:25.199Z,98495.55
2019-04-14T06:16:56.875Z,98496.97
2019-04-14T06:19:37.021Z,98501.52
2019-04-14T06:22:03.001Z,98495.64
2019-04-14T06:24:34.592Z,98501.33
2019-04-14T06:27:06.102Z,98494.71
2019-04-14T06:29:37.588Z,98505.86
2019-04-14T06:32:37.354Z,98502.88
2019-04-14T06:35:15.163Z,98507.14
2019-04-14T06:37:53.666Z,98509.39
2019-04-14T06:40:28.061Z,98506.47
2019-04-14T06:42:59.899Z,98512.36
2019-04-14T06:45:32.006Z,98518.82
2019-04-14T06:48:03.936Z,98515.30
2019-04-14T06:50:35.650Z,98525.84
2019-04-14T06:53:07.355Z,98530.97
2019-04-14T06:55:39.579Z,98520.25
2019-04-14T06:58:11.428Z,98526.58
2019-04-14T07:00:43.361Z,98532.20
2019-04-14T07:03:14.949Z,98531.48
2019-04-14T07:05:47.029Z,98534.49
2019-04-14T07:08:18.532Z,98533.72
2019-04-14T07:10:50.281Z,98538.98
2019-04-14T07:13:21.990Z,98542.61
2019-04-14T07:15:54.142Z,98544.08
2019-04-14T07:18:26.012Z,98542.80
2019-04-14T07:20:59.221Z,98551.58
2019-04-14T07:23:31.207Z,98543.41
2019-04-14T07:26:02.891Z,98544.64
2019-04-14T07:28:35.405Z,98548.68
2019-04-14T07:31:24.698Z,98545.50
2019-04-14T07:34:24.455Z,98541.39
2019-04-14T07:37:19.160Z,98544.35
2019-04-14T07:40:00.955Z,98546.15
2019-04-14T07:42:59.310Z,98549.62
2019-04-14T07:45:50.568Z,98552.17
2019-04-14T07:48:29.302Z,98549.79
2019-04-14T07:51:24.613Z,98544.63
2019-04-14T07:54:03.166Z,98543.33
2019-04-14T07:57:03.099Z,98542.25
2019-04-14T07:59:52.585Z,98545.70
2019-04-14T08:02:32.175Z,98550.96
2019-04-14T08:05:25.804Z,98552.90
2019-04-14T08:07:57.537Z,98551.25
2019-04-14T08:10:29.257Z,98561.17
2019-04-14T08:13:01.255Z,98562.63
2019-04-14T08:15:33.141Z,98570.45
2019-04-14T08:18:04.960Z,98566.70
2019-04-14T08:20:38.306Z,98578.73
2019-04-14T08:23:09.852Z,98569.19
2019-04-14T08:25:41.840Z,98579.62
2019-04-14T08:28:13.366Z,98564.50
2019-04-14T08:30:44.953Z,98574.94
2019-04-14T08:33:16.925Z,98579.28
2019-04-14T08:35:48.885Z,98574.91
2019-04-14T08:38:20.447Z,98572.98
2019-04-14T08:40:52.402Z,98574.52
2019-04-14T08:43:42.092Z,98572.73
2019-04-14T08:46:41.951Z,98570.95
2019-04-14T08:49:22.013Z,98569.95
2019-04-14T08:52:13.230Z,98578.56
2019-04-14T08:54:56.855Z,98572.70
2019-04-14T08:57:56.656Z,98578.20
2019-04-14T09:01:02.679Z,98567.57
2019-04-14T09:03:47.204Z,98581.86
2019-04-14T09:06:32.048Z,98586.17
2019-04-14T09:09:22.269Z,98583.59
2019-04-14T09:12:15.428Z,98586.16
2019-04-14T09:14:39.179Z,98577.39
2019-04-14T09:17:10.871Z,98579.73
2019-04-14T09:19:42.690Z,98575.02
2019-04-14T09:22:16.006Z,98580.02
2019-04-14T09:24:47.890Z,98576.70
2019-04-14T09:27:19.638Z,98571.44
2019-04-14T09:29:53.362Z,98572.00
2019-04-14T09:32:26.501Z,98569.72
2019-04-14T09:34:58.073Z,98567.55
2019-04-14T09:37:30.257Z,98575.34
2019-04-14T09:40:01.803Z,98574.61
2019-04-14T09:42:33.553Z,98558.52
2019-04-14T09:45:07.746Z,98563.59
2019-04-14T09:47:42.630Z,98565.17
2019-04-14T09:50:15.007Z,98557.27
2019-04-14T09:52:46.739Z,98559.33
2019-04-14T09:55:23.541Z,98548.43
2019-04-14T09:57:55.753Z,98554.52
2019-04-14T10:00:28.548Z,98555.55
2019-04-14T10:03:01.024Z,98564.97
2019-04-14T10:05:32.766Z,98564.93
2019-04-14T10:08:05.737Z,98566.36
2019-04-14T10:10:39.692Z,98559.28
2019-04-14T10:13:12.936Z,98556.47
2019-04-14T10:15:46.241Z,98565.27
2019-04-14T10:18:17.741Z,98554.95
2019-04-14T10:20:49.691Z,98551.69
2019-04-14T10:23:21.844Z,98564.28
2019-04-14T10:25:53.607Z,98561.42
2019-04-14T10:28:25.980Z,98562.17
2019-04-14T10:30:59.179Z,98556.94
2019-04-14T10:33:32.189Z,98562.09
2019-04-14T10:36:04.843Z,98565.09
2019-04-14T10:38:36.725Z,98573.72
2019-04-14T10:41:08.771Z,98561.12
2019-04-14T10:43:42.005Z,98559.98
2019-04-14T10:46:15.044Z,98561.98
2019-04-14T10:48:46.919Z,98570.50
2019-04-14T10:51:29.863Z,98567.03
2019-04-14T10:53:57.041Z,98569.45
2019-04-14T10:56:28.621Z,98553.77
2019-04-14T10:59:00.446Z,98561.22
2019-04-14T11:01:32.812Z,98557.44
2019-04-14T11:04:07.921Z,98549.58
2019-04-14T11:06:45.318Z,98558.23
2019-04-14T11:09:17.303Z,98548.48
2019-04-14T11:11:51.356Z,98558.42
2019-04-14T11:14:24.953Z,98549.27
2019-04-14T11:16:56.522Z,98557.61
2019-04-14T11:19:32.866Z,98549.66
2019-04-14T11:22:06.688Z,98549.42
2019-04-14T11:24:38.754Z,98555.85
2019-04-14T11:27:10.572Z,98557.23
2019-04-14T11:29:42.256Z,98557.80
2019-04-14T11:32:51.558Z,98545.44
2019-04-14T11:35:31.578Z,98555.47
2019-04-14T11:38:22.561Z,98551.69
2019-04-14T11:41:00.125Z,98555.97
2019-04-14T11:43:31.966Z,98563.01
2019-04-14T11:46:04.281Z,98563.99
2019-04-14T11:48:36.029Z,98568.46
2019-04-14T11:51:09.038Z,98564.11
2019-04-14T11:53:41.977Z,98554.91
2019-04-14T11:56:14.667Z,98553.01
2019-04-14T11:58:46.177Z,98552.34
2019-04-14T12:01:35.409Z,98560.69
2019-04-14T12:04:25.994Z,98568.72
2019-04-14T12:07:15.402Z,98566.16
2019-04-14T12:09:53.397Z,98555.84
2019-04-14T12:12:25.759Z,98568.41
2019-04-14T12:14:57.517Z,98570.91
2019-04-14T12:17:29.144Z,98563.88
2019-04-14T12:20:01.481Z,98559.48
2019-04-14T12:22:33.356Z,98564.81
2019-04-14T12:25:07.115Z,98574.30
2019-04-14T12:27:39.770Z,98559.73
2019-04-14T12:30:13.550Z,98557.27
2019-04-14T12:32:45.491Z,98562.28
2019-04-14T12:35:17.064Z,98561.16
2019-04-14T12:37:49.683Z,98548.69
2019-04-14T12:40:21.214Z,98548.41
2019-04-14T12:42:59.173Z,98551.52
2019-04-14T12:46:01.059Z,98550.45
2019-04-14T12:48:39.967Z,98554.89
2019-04-14T12:51:34.995Z,98548.79
2019-04-14T12:54:07.664Z,98554.17
2019-04-14T12:56:39.186Z,98550.48
2019-04-14T12:59:18.988Z,98546.13
2019-04-14T13:02:11.085Z,98540.36
2019-04-14T13:04:43.092Z,98548.92
2019-04-14T13:07:15.050Z,98541.71
2019-04-14T13:09:47.097Z,98545.34
2019-04-14T13:12:19.499Z,98542.27
2019-04-14T13:14:51.235Z,98540.98
2019-04-14T13:17:22.822Z,98547.58
2019-04-14T13:19:54.675Z,98546.59
2019-04-14T13:22:33.768Z,98547.11
2019-04-14T13:25:02.048Z,98544.25
2019-04-14T13:27:33.606Z,98544.59
2019-04-14T13:30:08.953Z,98545.23
2019-04-14T13:32:40.634Z,98540.14
2019-04-14T13:35:12.504Z,98540.14
2019-04-14T13:37:43.983Z,98531.01
2019-04-14T13:40:16.326Z,98533.08
2019-04-14T13:42:48.030Z,98543.36
2019-04-14T13:45:21.333Z,98547.34
2019-04-14T13:47:54.497Z,98546.50
2019-04-14T13:50:26.112Z,98542.14
2019-04-14T13:52:58.587Z,98550.08
2019-04-14T13:55:30.814Z,98557.88
2019-04-14T13:58:02.486Z,98545.61
2019-04-14T14:00:34.328Z,98556.02
2019-04-14T14:03:06.223Z,98551.55
2019-04-14T14:05:38.030Z,98555.31
2019-04-14T14:08:09.890Z,98554.83
2019-04-14T14:10:42.280Z,98552.14
2019-04-14T14:13:30.234Z,98553.77
2019-04-14T14:16:19.019Z,98544.52
2019-04-14T14:19:00.183Z,98552.76
2019-04-14T14:21:54.258Z,98548.11
2019-04-14T14:24:40.470Z,98555.72
2019-04-14T14:27:13.200Z,98546.34
2019-04-14T14:29:45.192Z,98554.18
2019-04-14T14:32:24.357Z,98557.74
2019-04-14T14:34:57.699Z,98558.86
2019-04-14T14:37:29.253Z,98552.29
2019-04-14T14:40:00.728Z,98552.00
2019-04-14T14:42:32.899Z,98559.92
2019-04-14T14:45:29.146Z,98557.43
2019-04-14T14:48:20.162Z,98560.19
2019-04-14T14:51:02.435Z,98560.41
2019-04-14T14:53:34.244Z,98559.11
2019-04-14T14:56:06.179Z,98565.94
2019-04-14T14:58:37.921Z,98564.88
2019-04-14T15:01:09.624Z,98566.21
2019-04-14T15:03:41.476Z,98561.03
2019-04-14T15:06:13.316Z,98560.75
2019-04-14T15:08:45.230Z,98560.16
2019-04-14T15:11:16.981Z,98568.89
2019-04-14T15:13:48.905Z,98568.89
2019-04-14T15:16:20.815Z,98565.39
2019-04-14T15:18:54.149Z,98570.05
2019-04-14T15:21:26.054Z,98564.31
2019-04-14T15:23:58.290Z,98561.31
2019-04-14T15:26:30.132Z,98554.73
2019-04-14T15:29:02.193Z,98575.50
2019-04-14T15:31:34.368Z,98566.76
2019-04-14T15:34:06.664Z,98569.44
2019-04-14T15:36:38.571Z,98568.36
2019-04-14T15:39:10.382Z,98576.02
2019-04-14T15:41:42.163Z,98580.91
2019-04-14T15:44:14.448Z,98576.22
2019-04-14T15:46:47.662Z,98579.43
2019-04-14T15:49:20.654Z,98575.92
2019-04-14T15:51:53.508Z,98577.80
2019-04-14T15:54:25.680Z,98578.58
2019-04-14T15:57:15.594Z,98583.41
2019-04-14T16:00:12.042Z,98579.34
2019-04-14T16:02:49.569Z,98566.17
2019-04-14T16:05:39.346Z,98566.17
2019-04-14T16:08:21.848Z,98577.88
2019-04-14T16:11:02.202Z,98593.06
2019-04-14T16:13:50.417Z,98585.03
2019-04-14T16:16:48.000Z,98596.92
2019-04-14T16:19:53.897Z,98591.41
2019-04-14T16:22:27.167Z,98590.39
2019-04-14T16:24:59.068Z,98597.69
2019-04-14T16:27:48.476Z,98599.19
2019-04-14T16:30:51.178Z,98604.95
2019-04-14T16:33:47.832Z,98606.80
2019-04-14T16:36:21.058Z,98608.06
2019-04-14T16:38:54.464Z,98611.50
2019-04-14T16:41:26.774Z,98606.80
2019-04-14T16:43:59.339Z,98607.17
2019-04-14T16:46:31.224Z,98617.62
2019-04-14T16:49:02.904Z,98617.27
2019-04-14T16:51:40.825Z,98612.66
2019-04-14T16:54:21.319Z,98614.07
2019-04-14T16:57:18.080Z,98621.52
2019-04-14T16:59:49.640Z,98620.66
2019-04-14T17:02:21.466Z,98625.25
2019-04-14T17:04:53.413Z,98628.80
2019-04-14T17:07:26.886Z,98629.68
2019-04-14T17:09:58.488Z,98623.75
2019-04-14T17:12:30.291Z,98618.69
2019-04-14T17:15:10.461Z,98620.55
2019-04-14T17:17:59.789Z,98636.84
2019-04-14T17:20:49.953Z,98627.42
2019-04-14T17:23:35.378Z,98633.05
2019-04-14T17:26:25.385Z,98631.63
2019-04-14T17:29:20.688Z,98639.08
2019-04-14T17:32:06.069Z,98639.36
2019-04-14T17:34:49.670Z,98643.24
2019-04-14T17:37:39.438Z,98639.25
2019-04-14T17:40:21.692Z,98646.28
2019-04-14T17:43:08.448Z,98649.80
2019-04-14T17:45:50.695Z,98656.16
2019-04-14T17:48:49.347Z,98655.66
2019-04-14T17:51:26.199Z,98657.13
2019-04-14T17:54:29.232Z,98663.09
2019-04-14T17:57:30.383Z,98668.69
2019-04-14T18:00:18.219Z,98667.09
2019-04-14T18:03:02.782Z,98678.18
2019-04-14T18:05:40.232Z,98682.92
2019-04-14T18:08:31.153Z,98690.86
2019-04-14T18:11:21.743Z,98685.01
2019-04-14T18:14:11.198Z,98695.78
2019-04-14T18:17:04.752Z,98698.05
2019-04-14T18:19:46.316Z,98708.81
2019-04-14T18:22:18.281Z,98699.42
2019-04-14T18:24:50.125Z,98713.86
2019-04-14T18:27:21.792Z,98715.14
2019-04-14T18:30:02.657Z,98719.06
2019-04-14T18:32:40.583Z,98722.45
2019-04-14T18:35:33.079Z,98718.53
2019-04-14T18:38:27.431Z,98716.52
2019-04-14T18:41:15.605Z,98723.03
2019-04-14T18:44:13.458Z,98726.80
2019-04-14T18:47:04.498Z,98731.67
2019-04-14T18:50:02.468Z,98733.55
2019-04-14T18:52:56.337Z,98735.84
2019-04-14T18:56:02.262Z,98732.52
2019-04-14T18:58:51.798Z,98732.23
2019-04-14T19:01:26.821Z,98738.52
2019-04-14T19:04:02.092Z,98735.01
2019-04-14T19:06:32.562Z,98740.61
2019-04-14T19:09:06.001Z,98743.44
2019-04-14T19:11:53.806Z,98743.59
2019-04-14T19:14:31.267Z,98749.78
2019-04-14T19:17:07.953Z,98747.20
2019-04-14T19:19:42.209Z,98750.57
2019-04-14T19:22:14.223Z,98750.37
2019-04-14T19:24:45.765Z,98743.98
2019-04-14T19:27:17.314Z,98753.34
2019-04-14T19:29:49.166Z,98745.70
2019-04-14T19:32:21.645Z,98748.59
2019-04-14T19:34:54.909Z,98747.75
2019-04-14T19:37:27.627Z,98744.48
2019-04-14T19:39:59.320Z,98749.50
2019-04-14T19:42:32.969Z,98754.75
2019-04-14T19:45:04.854Z,98752.16
2019-04-14T19:47:37.028Z,98755.28
2019-04-14T19:50:09.225Z,98759.23
2019-04-14T19:52:41.020Z,98761.95
2019-04-14T19:55:20.261Z,98763.21
2019-04-14T19:57:47.534Z,98763.53
2019-04-14T20:00:19.763Z,98763.23
2019-04-14T20:02:52.784Z,98764.28
2019-04-14T20:05:24.536Z,98767.59
2019-04-14T20:07:56.422Z,98764.81
2019-04-14T20:10:29.034Z,98765.80
2019-04-14T20:13:01.733Z,98768.48
2019-04-14T20:15:37.663Z,98768.50
2019-04-14T20:18:24.487Z,98775.45
2019-04-14T20:21:20.984Z,98775.56
2019-04-14T20:24:02.200Z,98774.63
2019-04-14T20:26:58.791Z,98771.52
2019-04-14T20:29:34.096Z,98775.27
2019-04-14T20:32:11.259Z,98780.25
2019-04-14T20:34:42.756Z,98775.59
2019-04-14T20:37:15.047Z,98782.62
2019-04-14T20:39:46.813Z,98779.83
2019-04-14T20:42:18.374Z,98786.27
2019-04-14T20:44:50.207Z,98785.22
2019-04-14T20:47:21.904Z,98780.56
2019-04-14T20:49:54.128Z,98786.17
2019-04-14T20:52:25.686Z,98790.09
2019-04-14T20:54:58.785Z,98794.45
2019-04-14T20:57:30.715Z,98797.05
2019-04-14T21:00:02.507Z,98791.34
2019-04-14T21:02:54.722Z,98805.34
2019-04-14T21:05:46.072Z,98789.70
2019-04-14T21:08:35.158Z,98795.08
2019-04-14T21:11:19.839Z,98797.06
2019-04-14T21:14:00.379Z,98792.29
2019-04-14T21:16:38.522Z,98794.15
2019-04-14T21:19:17.376Z,98788.24
2019-04-14T21:22:12.970Z,98794.88
2019-04-14T21:25:09.604Z,98793.10
2019-04-14T21:28:00.848Z,98794.57
2019-04-14T21:30:54.689Z,98802.94
2019-04-14T21:34:04.186Z,98798.51
2019-04-14T21:36:55.089Z,98809.14
2019-04-14T21:39:34.839Z,98804.72
2019-04-14T21:42:07.543Z,98806.25
2019-04-14T21:44:40.536Z,98809.34
2019-04-14T21:47:13.303Z,98809.16
2019-04-14T21:49:47.059Z,98807.28
2019-04-14T21:52:41.355Z,98808.72
2019-04-14T21:55:14.583Z,98817.52
2019-04-14T21:58:05.481Z,98819.05
2019-04-14T22:01:48.957Z,98818.55
2019-04-14T22:04:47.867Z,98813.58
2019-04-14T22:07:38.746Z,98819.81
2019-04-14T22:10:43.299Z,98817.34
2019-04-14T22:13:15.184Z,98824.58
2019-04-14T22:15:47.217Z,98828.80
2019-04-14T22:18:19.712Z,98820.84
2019-04-14T22:20:51.454Z,98824.95
2019-04-14T22:23:23.398Z,98815.41
2019-04-14T22:25:56.390Z,98815.41
2019-04-14T22:28:27.910Z,98838.08
2019-04-14T22:30:59.558Z,98839.94
2019-04-14T22:33:31.792Z,98832.16
2019-04-14T22:36:04.305Z,98838.77
2019-04-14T22:38:36.082Z,98836.95
2019-04-14T22:41:07.568Z,98839.12
2019-04-14T22:43:39.398Z,98833.57
2019-04-14T22:46:11.161Z,98838.73
2019-04-14T22:48:42.696Z,98839.02
2019-04-14T22:51:16.372Z,98841.48
2019-04-14T22:53:48.556Z,98840.33
2019-04-14T22:56:21.059Z,98843.23
2019-04-14T22:58:52.967Z,98841.67
2019-04-14T23:01:28.240Z,98848.67
2019-04-14T23:04:22.752Z,98846.38
2019-04-14T23:07:17.849Z,98850.58
2019-04-14T23:10:11.513Z,98842.08
2019-04-14T23:13:03.323Z,98842.36
2019-04-14T23:15:47.206Z,98847.58
2019-04-14T23:18:39.727Z,98846.55
2019-04-14T23:21:21.509Z,98839.45
2019-04-14T23:24:10.050Z,98846.55
2019-04-14T23:26:51.832Z,98836.59
2019-04-14T23:29:15.188Z,98838.98
2019-04-14T23:31:47.167Z,98843.02
2019-04-14T23:34:20.114Z,98839.05
2019-04-14T23:36:51.819Z,98845.05
2019-04-14T23:39:24.382Z,98845.14
2019-04-14T23:41:56.096Z,98837.27
2019-04-14T23:44:27.719Z,98840.44
2019-04-14T23:47:00.610Z,98851.69
2019-04-14T23:49:32.275Z,98851.69
2019-04-14T23:52:04.361Z,98846.59
2019-04-14T23:54:36.013Z,98852.02
2019-04-14T23:57:07.511Z,98848.38
2019-04-14T23:59:39.237Z,98850.62
